Alex, Minnesota
Current Conditions -  °F | °C
As of 9:53 PM on Saturday 20 Dec 2014 (Local Time) from KAXN Reporting Station
Haze Haze  
Wind Chill: 18°   Ceiling: 400
Heat Index: 29°   Visibility: 6mi
Dew Point: 27°   Wind: 15mph
Humidity: 92%   Direction: 180°S
Pressure: 29.98"   Gusts: NA
Location:  45.8551°N, 95.4333°W
Report Text: KAXN 210353Z AUTO 18013KT 6SM BR OVC004 M02/M03 A2998 RMK AO2 SLP172 T10171028
Loading
Personal Weather Stations






























Interactive Weather Map New forecast layout! Learn more

10-Day Weather Forecast

Advertisements
Track Severe Weather on mobile